Terminal Aerodrome Forecast
Issued by NWS Binghamton, NY

Home | Current Version | Previous Version | Text Only | Print | Product List | Glossary On
Versions: 1 2 3 4 5 6 7 8 9 10 11 12 13 14 15 16 17 18 19 20 21
284
FTUS41 KBGM 011732
TAFBGM
TAF
KBGM 011732Z 0118/0218 16008KT P6SM -SHRA OVC007
      TEMPO 0121/0201 5SM -SHRA OVC004
     FM020900 VRB05KT 3SM -RA BR OVC004
     FM021500 21009KT 5SM -RA BR OVC012=

USA.gov is the U.S. government's official web portal to all federal, state and local government web resources and services.